Terminal Aerodrome Forecast
Issued by NWS Twin Cities, MN

Home | Current Version | Previous Version | Graphics & Text | Print | Product List | Glossary On
Versions: 1 2 3 4 5 6 7 8 9 10 11 12 13 14 15 16 17
175
FTUS43 KMPX 221124
TAFEAU
TAF
KEAU 221124Z 2212/2312 08003KT 6SM BR OVC010
      TEMPO 2212/2214 3SM BR OVC005
     FM221400 11002KT P6SM BKN012
      TEMPO 2216/2217 SCT015 BKN035
     FM221800 19003KT P6SM BKN035
     FM230000 23004KT P6SM SKC=

USA.gov is the U.S. government's official web portal to all federal, state and local government web resources and services.